CheckWX is a tool to help pilots better visualize weather data.  It is not intended as a substitute for an official pre-flight weather briefing.

10:09:16 UTC

KLND TAF
Hunt Field Airport
Lander, Wyoming, USA
KLND 260526Z 2606/2706 25007KT P6SM SCT090 BKN150 FM261300 VRB05KT P6SM FEW120 FM261900 23013G22KT P6SM FEW120 FM270400 24008KT P6SM SKC

Jun-26@
06:00 UTC

Jun-26 @ 06:00 UTC

Jun-26@
13:00 UTC

Jun-26 @ 13:00 UTC

KLND 260526Z 2606/2706 25007KT P6SM SCT090 BKN150
Wind
  • 250° at 7 KTS
Cloud Levels
  • Scattered at 9,000' AGL
  • Broken at 15,000' AGL

Jun-26@
13:00 UTC

Jun-26 @ 13:00 UTC

Jun-26@
19:00 UTC

Jun-26 @ 19:00 UTC

FM261300 VRB05KT P6SM FEW120

From

From Standard forecast or significant change

Wind
  • Variable at 5 KTS
Cloud Levels
  • Few at 12,000' AGL

Jun-26@
19:00 UTC

Jun-26 @ 19:00 UTC

Jun-27@
04:00 UTC

Jun-27 @ 04:00 UTC

FM261900 23013G22KT P6SM FEW120

From

From Standard forecast or significant change

Wind
  • 230° at 13 KTS
  • {Gusting to 22 KTS
Cloud Levels
  • Few at 12,000' AGL

Jun-27@
04:00 UTC

Jun-27 @ 04:00 UTC

Jun-27@
06:00 UTC

Jun-27 @ 06:00 UTC

FM270400 24008KT P6SM SKC

From

From Standard forecast or significant change

Wind
  • 240° at 8 KTS
Cloud Levels
  • Clear skies